Hlavní strana
METAR-TAF:

METAR-TAF

Letiště :

Mezinárodní letiště Kchun-ming Čchang-šuej

Kchun-ming, Čína

zeměpisná šířka: 25-01N, zeměpisná délka: 102-41E, výška: 1892 m

Aktuální stav počasí

Zpráva byla vytvořena před 31 minutami, v 13:00 UTC
Severoseverovýchodní vítr 6 kt
Teplota 17°C
Vlhkost vzduchu 94%
Tlak 1017 hPa
Viditelnost 10 km a více
Skoro jasno ve výšce 2600 ft
Oblačno až skoro zataženo ve výšce 4300 ft

METAR: ZPPP 171300Z 03003MPS 9999 FEW026 BKN043 17/16 Q1017 NOSIG

Čas: 21:31 (13:31 UTC)

Předpověď počasí

Zpráva byla vytvořena před 6 hodinami a 24 minutami, v 07:07 UTC
Předpověď platná od 17 v 12 UTC do 18 v 12 UTC
Severovýchodní vítr 12 kt
Viditelnost 10 km a více
Polojasno ve výšce 2300 ft
Oblačno až skoro zataženo ve výšce 3300 ft

TAF: ZPPP 170707Z 1712/1812 04006MPS 9999 SCT023 BKN033 TX23/1808Z TN15/1723Z

Stav a předpovědi počasí z více než 4 000 letišť (zprávy METAR a TAF).

Červené a žluté tečky na mapě představují dostupné meteorologické stanice.

Když kurzor umístíte na tečku, zobrazí se název stanice.

Pak kliknutím zobrazíte stav a předpověď počasí.

Chcete-li změnit mapu, kliknutím na zelené tlačítko se znaménkem +mapu přiblížíte, kliknutím na zelené tlačítko se znaménkem – mapu oddálíte a kliknutím na zelené šipky přejdete na sousední mapy.


METAR-TAF: